Time;durP1;ratioP1;P1;durP2;ratioP2;P2;SDS_P1;SDS_P2;PMS_P1;PMS_P2;Temp;Humidity;BMP_temperature;BMP_pressure;BME280_temperature;BME280_humidity;BME280_pressure;Samples;Min_cycle;Max_cycle;Signal;HPM_P1;HPM_P2
2021/08/03 00:00:53;;;;;;;8.27;4.65;;;;;;;;;;1497121;39;20031;-59
2021/08/03 00:01:56;;;;;;;6.45;4.53;;;;;;;;;;1497113;39;20023;-59
2021/08/03 00:03:01;;;;;;;6.40;4.88;;;;;;;;;;1497171;39;20078;-59
2021/08/03 00:04:09;;;;;;;7.80;4.93;;;;;;;;;;1496972;39;20019;-60
2021/08/03 00:05:11;;;;;;;7.50;4.70;;;;;;;;;;1496930;39;20027;-59
2021/08/03 00:06:15;;;;;;;9.50;5.15;;;;;;;;;;1497055;39;20080;-59
2021/08/03 00:07:19;;;;;;;7.95;4.75;;;;;;;;;;1496995;39;20023;-59
2021/08/03 00:08:23;;;;;;;6.65;4.53;;;;;;;;;;1496914;39;20023;-59
2021/08/03 00:09:25;;;;;;;7.72;4.30;;;;;;;;;;1497011;39;20383;-59
2021/08/03 00:10:27;;;;;;;7.25;4.28;;;;;;;;;;1496863;39;20049;-59
2021/08/03 00:11:30;;;;;;;6.97;4.13;;;;;;;;;;1497188;39;20113;-60
2021/08/03 00:12:31;;;;;;;6.97;4.07;;;;;;;;;;1496972;39;20045;-59
2021/08/03 00:13:35;;;;;;;7.85;4.18;;;;;;;;;;1496990;39;20027;-59
2021/08/03 00:14:43;;;;;;;6.38;4.07;;;;;;;;;;1497047;39;20020;-59
2021/08/03 00:15:47;;;;;;;5.85;3.90;;;;;;;;;;1496928;39;20024;-59
2021/08/03 00:16:49;;;;;;;7.28;3.97;;;;;;;;;;1496932;39;20031;-59
2021/08/03 00:17:55;;;;;;;6.72;3.60;;;;;;;;;;1497027;39;20411;-59
2021/08/03 00:18:56;;;;;;;5.43;3.40;;;;;;;;;;1496917;39;20435;-60
2021/08/03 00:19:59;;;;;;;6.20;3.92;;;;;;;;;;1497014;39;20035;-59
2021/08/03 00:21:00;;;;;;;7.43;3.90;;;;;;;;;;1496968;39;20027;-59
2021/08/03 00:22:01;;;;;;;6.80;3.88;;;;;;;;;;1496992;39;20383;-61
2021/08/03 00:23:03;;;;;;;7.68;3.55;;;;;;;;;;1497059;39;20031;-59
2021/08/03 00:24:06;;;;;;;7.07;3.95;;;;;;;;;;1497006;39;20402;-59
2021/08/03 00:25:09;;;;;;;5.95;3.80;;;;;;;;;;1496928;39;20294;-59
2021/08/03 00:26:12;;;;;;;6.07;4.00;;;;;;;;;;1496876;39;20024;-59
2021/08/03 00:27:13;;;;;;;6.00;3.95;;;;;;;;;;1497038;39;20020;-59
2021/08/03 00:28:16;;;;;;;6.00;4.07;;;;;;;;;;1497135;39;20383;-59
2021/08/03 00:29:17;;;;;;;6.47;3.90;;;;;;;;;;1497118;39;20020;-59
2021/08/03 00:30:20;;;;;;;7.88;4.00;;;;;;;;;;1496836;39;20046;-60
2021/08/03 00:31:24;;;;;;;9.77;4.15;;;;;;;;;;1496937;39;20023;-59
2021/08/03 00:32:26;;;;;;;9.13;4.32;;;;;;;;;;1496839;39;20023;-59
2021/08/03 00:33:28;;;;;;;7.38;3.47;;;;;;;;;;1496930;39;20030;-59
2021/08/03 00:34:29;;;;;;;7.45;4.25;;;;;;;;;;1496880;39;20020;-60
2021/08/03 00:35:31;;;;;;;6.75;4.18;;;;;;;;;;1496923;39;20027;-59
2021/08/03 00:36:44;;;;;;;9.13;4.28;;;;;;;;;;1496922;39;20367;-59
2021/08/03 00:37:45;;;;;;;6.82;4.20;;;;;;;;;;1496858;39;20023;-59
2021/08/03 00:38:46;;;;;;;7.85;4.75;;;;;;;;;;1497520;39;20027;-59
2021/08/03 00:39:55;;;;;;;7.85;5.28;;;;;;;;;;1497528;39;20085;-61
2021/08/03 00:41:00;;;;;;;10.23;4.90;;;;;;;;;;1497498;39;20028;-59
2021/08/03 00:42:05;;;;;;;6.93;4.70;;;;;;;;;;1497712;39;20387;-59
2021/08/03 00:43:06;;;;;;;7.82;4.47;;;;;;;;;;1497590;39;20027;-59
2021/08/03 00:44:08;;;;;;;8.52;4.88;;;;;;;;;;1497553;39;20046;-59
2021/08/03 00:45:09;;;;;;;8.95;5.35;;;;;;;;;;1497037;39;20379;-59
2021/08/03 00:46:13;;;;;;;8.48;5.03;;;;;;;;;;1497167;39;20080;-59
2021/08/03 00:47:15;;;;;;;10.40;5.32;;;;;;;;;;1497621;39;20027;-61
2021/08/03 00:48:17;;;;;;;8.07;5.07;;;;;;;;;;1497465;39;20261;-59
2021/08/03 00:49:18;;;;;;;7.25;4.47;;;;;;;;;;1497593;39;20019;-59
2021/08/03 00:50:20;;;;;;;7.68;4.45;;;;;;;;;;1497500;39;20406;-59
2021/08/03 00:51:21;;;;;;;8.95;4.75;;;;;;;;;;1497550;39;20020;-59
2021/08/03 00:52:23;;;;;;;6.00;4.50;;;;;;;;;;1497554;39;20088;-59
2021/08/03 00:53:23;;;;;;;7.13;4.47;;;;;;;;;;1497432;39;20023;-59
2021/08/03 00:54:25;;;;;;;7.18;4.38;;;;;;;;;;1497560;39;20024;-59
2021/08/03 00:55:26;;;;;;;7.82;4.38;;;;;;;;;;1497535;39;20054;-61
2021/08/03 00:56:29;;;;;;;7.20;4.18;;;;;;;;;;1497635;39;20019;-60
2021/08/03 00:57:32;;;;;;;6.57;4.57;;;;;;;;;;1497614;39;20030;-59
2021/08/03 00:58:33;;;;;;;5.93;4.60;;;;;;;;;;1497721;39;20060;-59
2021/08/03 00:59:35;;;;;;;6.45;4.18;;;;;;;;;;1497463;39;20023;-60
2021/08/03 01:00:37;;;;;;;10.18;4.50;;;;;;;;;;1497431;39;20020;-61
2021/08/03 01:01:39;;;;;;;9.90;4.60;;;;;;;;;;1497460;39;20030;-59
2021/08/03 01:02:40;;;;;;;7.97;4.10;;;;;;;;;;1497620;39;20028;-59
2021/08/03 01:03:41;;;;;;;8.15;4.50;;;;;;;;;;1497516;39;20026;-59
2021/08/03 01:04:43;;;;;;;8.38;4.40;;;;;;;;;;1497431;39;20031;-59
2021/08/03 01:05:53;;;;;;;6.72;4.32;;;;;;;;;;1497431;39;20271;-60
2021/08/03 01:07:03;;;;;;;12.80;4.82;;;;;;;;;;1497563;39;20038;-59
2021/08/03 01:08:12;;;;;;;7.80;4.68;;;;;;;;;;1497638;39;20035;-60
2021/08/03 01:09:21;;;;;;;6.57;4.10;;;;;;;;;;1497598;39;20264;-58
2021/08/03 01:10:27;;;;;;;9.38;4.32;;;;;;;;;;1497454;39;20290;-60
2021/08/03 01:11:37;;;;;;;7.97;4.05;;;;;;;;;;1497464;39;20363;-59
2021/08/03 01:12:55;;;;;;;7.35;4.20;;;;;;;;;;1497570;39;20395;-59
2021/08/03 01:14:05;;;;;;;7.60;4.65;;;;;;;;;;1497686;39;20063;-60
2021/08/03 01:15:11;;;;;;;9.85;4.95;;;;;;;;;;1497528;39;20027;-59
2021/08/03 01:16:21;;;;;;;7.22;4.57;;;;;;;;;;1497726;39;20068;-59
2021/08/03 01:17:30;;;;;;;8.20;4.32;;;;;;;;;;1497462;39;20028;-58
2021/08/03 01:18:36;;;;;;;5.82;4.15;;;;;;;;;;1497547;39;20028;-59
2021/08/03 01:19:48;;;;;;;7.50;4.22;;;;;;;;;;1497392;39;20414;-58
2021/08/03 01:21:16;;;;;;;6.97;4.32;;;;;;;;;;1497508;39;20042;-59
2021/08/03 01:22:33;;;;;;;8.38;3.72;;;;;;;;;;1497508;39;20020;-60
2021/08/03 01:23:54;;;;;;;6.65;4.13;;;;;;;;;;1497514;39;20409;-58
2021/08/03 01:25:11;;;;;;;7.00;4.13;;;;;;;;;;1497438;39;20024;-58
2021/08/03 01:26:27;;;;;;;7.38;4.15;;;;;;;;;;1497386;39;20035;-59
2021/08/03 01:27:44;;;;;;;6.10;4.25;;;;;;;;;;1497562;39;20023;-60
2021/08/03 01:28:50;;;;;;;6.30;4.07;;;;;;;;;;1497616;39;20034;-58
2021/08/03 01:29:51;;;;;;;7.72;4.20;;;;;;;;;;1497346;39;20306;-60
2021/08/03 01:30:57;;;;;;;6.88;4.40;;;;;;;;;;1497555;39;20027;-58
2021/08/03 01:32:03;;;;;;;7.18;4.18;;;;;;;;;;1497542;39;20026;-59
2021/08/03 01:33:07;;;;;;;7.05;4.75;;;;;;;;;;1497460;39;20054;-59
2021/08/03 01:34:11;;;;;;;7.63;4.57;;;;;;;;;;1497527;39;20105;-59
2021/08/03 01:35:14;;;;;;;7.03;4.53;;;;;;;;;;1497469;39;20059;-59
2021/08/03 01:36:16;;;;;;;7.97;4.28;;;;;;;;;;1497315;39;20023;-59
2021/08/03 01:37:22;;;;;;;6.38;3.95;;;;;;;;;;1497430;39;20026;-59
2021/08/03 01:38:25;;;;;;;6.32;4.50;;;;;;;;;;1497381;39;20024;-59
2021/08/03 01:39:32;;;;;;;5.70;4.15;;;;;;;;;;1497519;39;20023;-58
2021/08/03 01:40:36;;;;;;;6.90;4.45;;;;;;;;;;1497316;39;20039;-58
2021/08/03 01:41:39;;;;;;;5.53;4.13;;;;;;;;;;1497426;39;20108;-60
2021/08/03 01:42:42;;;;;;;7.32;4.25;;;;;;;;;;1497306;39;20063;-60
2021/08/03 01:43:47;;;;;;;7.43;3.67;;;;;;;;;;1496817;39;20260;-59
2021/08/03 01:44:50;;;;;;;8.23;4.68;;;;;;;;;;1496922;39;20410;-60
2021/08/03 01:45:55;;;;;;;6.90;4.00;;;;;;;;;;1497315;39;20318;-59
2021/08/03 01:46:58;;;;;;;5.68;3.72;;;;;;;;;;1497327;39;20298;-60
2021/08/03 01:48:01;;;;;;;6.38;4.22;;;;;;;;;;1497517;39;20064;-60
2021/08/03 01:49:03;;;;;;;8.60;4.43;;;;;;;;;;1497155;39;20063;-61
2021/08/03 01:50:08;;;;;;;7.45;4.35;;;;;;;;;;1497440;39;20034;-58
2021/08/03 01:51:09;;;;;;;7.38;4.40;;;;;;;;;;1497296;39;20382;-58
2021/08/03 01:52:11;;;;;;;6.30;3.90;;;;;;;;;;1497438;39;20019;-58
2021/08/03 01:53:14;;;;;;;9.32;4.20;;;;;;;;;;1497503;39;20023;-59
2021/08/03 01:54:16;;;;;;;5.75;3.92;;;;;;;;;;1497317;39;20023;-59
2021/08/03 01:55:18;;;;;;;9.18;4.55;;;;;;;;;;1497457;39;20027;-61
2021/08/03 01:56:23;;;;;;;7.72;4.32;;;;;;;;;;1497440;39;20031;-60
2021/08/03 01:57:25;;;;;;;6.15;4.13;;;;;;;;;;1497406;39;20307;-59
2021/08/03 01:58:28;;;;;;;6.65;4.10;;;;;;;;;;1497445;39;20027;-59
2021/08/03 01:59:30;;;;;;;7.15;4.20;;;;;;;;;;1497432;39;20113;-60
2021/08/03 02:00:33;;;;;;;8.00;4.68;;;;;;;;;;1497488;39;20363;-58
2021/08/03 02:01:36;;;;;;;8.32;4.68;;;;;;;;;;1497386;39;20075;-59
2021/08/03 02:02:37;;;;;;;7.43;4.32;;;;;;;;;;1497308;39;20016;-59
2021/08/03 02:03:40;;;;;;;7.75;4.57;;;;;;;;;;1497391;39;20266;-59
2021/08/03 02:04:42;;;;;;;7.78;4.57;;;;;;;;;;1497271;39;20031;-59
2021/08/03 02:05:45;;;;;;;6.13;3.95;;;;;;;;;;1497341;39;20028;-59
2021/08/03 02:06:47;;;;;;;7.10;4.30;;;;;;;;;;1497305;39;20034;-59
2021/08/03 02:07:50;;;;;;;9.80;5.00;;;;;;;;;;1497245;39;20023;-60
2021/08/03 02:08:54;;;;;;;7.70;4.30;;;;;;;;;;1497257;39;20035;-59
2021/08/03 02:09:57;;;;;;;8.05;4.43;;;;;;;;;;1497344;39;20487;-59
2021/08/03 02:10:58;;;;;;;9.35;4.65;;;;;;;;;;1497339;39;20024;-60
2021/08/03 02:12:00;;;;;;;6.72;4.45;;;;;;;;;;1497707;39;20023;-58
2021/08/03 02:13:03;;;;;;;6.75;4.38;;;;;;;;;;1497422;39;20031;-59
2021/08/03 02:14:05;;;;;;;7.78;4.30;;;;;;;;;;1497343;39;20038;-59
2021/08/03 02:15:08;;;;;;;6.68;4.20;;;;;;;;;;1497496;39;20024;-59
2021/08/03 02:16:12;;;;;;;7.75;4.63;;;;;;;;;;1497482;39;20039;-59
2021/08/03 02:17:15;;;;;;;7.40;4.15;;;;;;;;;;1497332;39;20027;-59
2021/08/03 02:18:17;;;;;;;7.82;4.65;;;;;;;;;;1497423;39;20080;-58
2021/08/03 02:19:18;;;;;;;6.90;4.30;;;;;;;;;;1496785;39;20026;-60
2021/08/03 02:20:20;;;;;;;7.95;4.25;;;;;;;;;;1496786;39;20054;-59
2021/08/03 02:21:22;;;;;;;7.50;4.35;;;;;;;;;;1497164;39;20287;-59
2021/08/03 02:22:24;;;;;;;7.93;4.65;;;;;;;;;;1497279;39;20035;-59
2021/08/03 02:23:25;;;;;;;8.40;4.65;;;;;;;;;;1497273;39;20024;-60
2021/08/03 02:24:27;;;;;;;8.27;4.55;;;;;;;;;;1497235;39;20287;-59
2021/08/03 02:25:27;;;;;;;7.82;4.65;;;;;;;;;;1497369;39;20020;-60
2021/08/03 02:26:29;;;;;;;6.10;3.97;;;;;;;;;;1497409;39;20027;-59
2021/08/03 02:27:30;;;;;;;6.28;4.35;;;;;;;;;;1497219;39;20046;-58
2021/08/03 02:28:32;;;;;;;10.57;4.88;;;;;;;;;;1497319;39;20024;-60
2021/08/03 02:29:35;;;;;;;9.48;4.90;;;;;;;;;;1497156;39;20024;-59
2021/08/03 02:30:37;;;;;;;7.57;4.70;;;;;;;;;;1497301;39;20043;-58
2021/08/03 02:31:46;;;;;;;7.53;4.80;;;;;;;;;;1497260;39;20024;-58
2021/08/03 02:32:52;;;;;;;10.18;4.80;;;;;;;;;;1497452;39;20030;-59
2021/08/03 02:33:57;;;;;;;8.07;4.53;;;;;;;;;;1497348;39;20030;-59
2021/08/03 02:35:05;;;;;;;10.63;4.93;;;;;;;;;;1497478;39;20027;-59
2021/08/03 02:36:09;;;;;;;8.57;4.53;;;;;;;;;;1497219;39;20024;-59
2021/08/03 02:37:16;;;;;;;7.60;4.65;;;;;;;;;;1496747;39;20059;-58
2021/08/03 02:38:21;;;;;;;10.20;4.40;;;;;;;;;;1496840;39;20028;-58
2021/08/03 02:39:24;;;;;;;7.95;4.65;;;;;;;;;;1497357;39;20034;-59
2021/08/03 02:40:25;;;;;;;8.48;4.65;;;;;;;;;;1497195;39;20027;-60
2021/08/03 02:41:29;;;;;;;8.55;4.43;;;;;;;;;;1497205;39;20023;-59
2021/08/03 02:42:32;;;;;;;6.57;4.22;;;;;;;;;;1497377;39;20030;-59
2021/08/03 02:43:35;;;;;;;10.65;4.90;;;;;;;;;;1497456;39;20128;-58
2021/08/03 02:44:38;;;;;;;6.60;4.50;;;;;;;;;;1497365;39;20024;-59
2021/08/03 02:45:41;;;;;;;7.50;4.72;;;;;;;;;;1497277;39;20031;-59
2021/08/03 02:46:44;;;;;;;8.45;4.80;;;;;;;;;;1497171;39;20019;-59
2021/08/03 02:47:50;;;;;;;8.38;4.32;;;;;;;;;;1497243;39;20467;-60
2021/08/03 02:49:01;;;;;;;8.95;4.88;;;;;;;;;;1497396;39;20023;-59
2021/08/03 02:50:23;;;;;;;10.63;4.93;;;;;;;;;;1497098;39;20051;-60
2021/08/03 02:51:24;;;;;;;10.45;4.75;;;;;;;;;;1497253;39;20028;-58
2021/08/03 02:52:28;;;;;;;8.48;4.88;;;;;;;;;;1497278;39;20034;-59
2021/08/03 02:53:32;;;;;;;9.27;4.57;;;;;;;;;;1497147;39;20024;-60
2021/08/03 02:54:36;;;;;;;8.27;5.20;;;;;;;;;;1497200;39;20066;-60
2021/08/03 02:55:41;;;;;;;8.38;4.40;;;;;;;;;;1497265;39;20054;-58
2021/08/03 02:56:45;;;;;;;10.48;4.40;;;;;;;;;;1497332;39;20016;-58
2021/08/03 02:57:51;;;;;;;8.90;4.78;;;;;;;;;;1497272;39;20035;-58
2021/08/03 02:58:57;;;;;;;10.10;4.43;;;;;;;;;;1497372;39;20038;-60
2021/08/03 03:00:01;;;;;;;10.20;4.70;;;;;;;;;;1497220;39;20023;-58
2021/08/03 03:01:06;;;;;;;7.28;4.53;;;;;;;;;;1496668;39;20024;-60
2021/08/03 03:02:11;;;;;;;7.90;4.80;;;;;;;;;;1497304;39;20023;-58
2021/08/03 03:03:18;;;;;;;10.48;4.82;;;;;;;;;;1497119;39;20035;-58
2021/08/03 03:04:23;;;;;;;9.90;4.95;;;;;;;;;;1497250;39;20028;-60
2021/08/03 03:05:27;;;;;;;10.23;5.00;;;;;;;;;;1497286;39;20108;-59
2021/08/03 03:06:32;;;;;;;8.40;5.10;;;;;;;;;;1497121;39;20414;-59
2021/08/03 03:07:38;;;;;;;10.15;5.05;;;;;;;;;;1497206;39;20364;-59
2021/08/03 03:08:44;;;;;;;8.07;4.55;;;;;;;;;;1497104;39;20023;-59
2021/08/03 03:09:46;;;;;;;8.82;4.97;;;;;;;;;;1497247;39;20291;-59
2021/08/03 03:10:51;;;;;;;7.72;4.90;;;;;;;;;;1497224;39;20059;-59
2021/08/03 03:11:53;;;;;;;8.25;5.20;;;;;;;;;;1497105;39;20030;-58
2021/08/03 03:12:58;;;;;;;8.40;5.15;;;;;;;;;;1497175;39;20024;-59
2021/08/03 03:14:02;;;;;;;8.20;5.05;;;;;;;;;;1497114;39;20024;-58
2021/08/03 03:15:06;;;;;;;10.30;4.57;;;;;;;;;;1497204;39;20027;-58
2021/08/03 03:16:08;;;;;;;6.57;4.70;;;;;;;;;;1497128;39;20023;-58
2021/08/03 03:17:12;;;;;;;7.28;4.88;;;;;;;;;;1497192;39;20387;-60
2021/08/03 03:18:14;;;;;;;8.18;4.90;;;;;;;;;;1497109;39;20299;-59
2021/08/03 03:19:17;;;;;;;9.55;4.60;;;;;;;;;;1497189;39;20264;-59
2021/08/03 03:20:19;;;;;;;8.93;5.00;;;;;;;;;;1497049;39;20031;-59
2021/08/03 03:21:23;;;;;;;9.20;4.32;;;;;;;;;;1497106;39;20392;-60
2021/08/03 03:22:26;;;;;;;7.28;5.25;;;;;;;;;;1497091;39;20023;-58
2021/08/03 03:23:32;;;;;;;9.23;5.13;;;;;;;;;;1497368;39;20031;-58
2021/08/03 03:24:36;;;;;;;7.75;4.70;;;;;;;;;;1497173;39;20046;-59
2021/08/03 03:25:38;;;;;;;7.90;5.00;;;;;;;;;;1497170;39;20080;-58
2021/08/03 03:26:41;;;;;;;8.35;5.13;;;;;;;;;;1497172;39;20024;-60
2021/08/03 03:27:43;;;;;;;11.65;5.30;;;;;;;;;;1497208;39;20023;-58
2021/08/03 03:28:46;;;;;;;8.45;5.10;;;;;;;;;;1497165;39;20428;-59
2021/08/03 03:29:49;;;;;;;9.60;5.40;;;;;;;;;;1497088;39;20056;-59
2021/08/03 03:30:53;;;;;;;10.00;5.88;;;;;;;;;;1497212;39;20024;-58
2021/08/03 03:31:56;;;;;;;10.07;5.65;;;;;;;;;;1497121;39;20035;-59
2021/08/03 03:33:04;;;;;;;8.10;5.28;;;;;;;;;;1497063;39;20034;-58
2021/08/03 03:34:09;;;;;;;8.23;5.32;;;;;;;;;;1497312;39;20314;-59
2021/08/03 03:35:11;;;;;;;9.82;5.55;;;;;;;;;;1497128;39;20023;-58
2021/08/03 03:36:14;;;;;;;11.32;5.60;;;;;;;;;;1497091;39;20364;-59
2021/08/03 03:37:16;;;;;;;8.05;5.20;;;;;;;;;;1497124;39;20290;-58
2021/08/03 03:38:20;;;;;;;10.23;5.70;;;;;;;;;;1497237;39;20023;-59
2021/08/03 03:39:22;;;;;;;14.77;5.57;;;;;;;;;;1497176;39;20023;-59
2021/08/03 03:40:25;;;;;;;9.02;5.30;;;;;;;;;;1497083;39;20031;-60
2021/08/03 03:41:27;;;;;;;10.13;5.78;;;;;;;;;;1497121;39;20032;-59
2021/08/03 03:42:31;;;;;;;8.50;5.38;;;;;;;;;;1497228;39;20028;-59
2021/08/03 03:43:32;;;;;;;11.57;5.38;;;;;;;;;;1497142;39;20035;-59
2021/08/03 03:44:34;;;;;;;8.60;5.57;;;;;;;;;;1497136;39;20034;-59
2021/08/03 03:45:35;;;;;;;9.50;5.57;;;;;;;;;;1497007;39;20024;-58
2021/08/03 03:46:42;;;;;;;8.63;5.53;;;;;;;;;;1497074;39;20023;-59
2021/08/03 03:47:55;;;;;;;11.00;5.43;;;;;;;;;;1497034;39;20391;-59
2021/08/03 03:49:03;;;;;;;12.32;5.47;;;;;;;;;;1497101;39;20032;-59
2021/08/03 03:50:11;;;;;;;7.28;4.80;;;;;;;;;;1496987;39;20386;-59
2021/08/03 03:51:17;;;;;;;7.40;5.15;;;;;;;;;;1497255;39;20076;-58
2021/08/03 03:52:22;;;;;;;8.18;5.03;;;;;;;;;;1497124;39;20027;-59
2021/08/03 03:53:25;;;;;;;8.27;5.07;;;;;;;;;;1497174;39;20415;-59
2021/08/03 03:54:29;;;;;;;10.15;5.43;;;;;;;;;;1497015;39;20023;-59
2021/08/03 03:55:32;;;;;;;9.05;5.35;;;;;;;;;;1497174;39;20128;-61
2021/08/03 03:56:38;;;;;;;9.75;5.68;;;;;;;;;;1496988;39;20020;-58
2021/08/03 03:57:43;;;;;;;8.25;5.38;;;;;;;;;;1497042;39;20028;-59
2021/08/03 03:58:49;;;;;;;8.00;5.20;;;;;;;;;;1496634;39;20019;-58
2021/08/03 03:59:52;;;;;;;8.52;5.18;;;;;;;;;;1496577;39;20030;-59
2021/08/03 04:00:55;;;;;;;9.43;5.50;;;;;;;;;;1496997;39;20386;-59
2021/08/03 04:01:59;;;;;;;13.75;5.53;;;;;;;;;;1496993;39;20035;-59
2021/08/03 04:03:01;;;;;;;9.20;5.18;;;;;;;;;;1497021;39;20019;-59
2021/08/03 04:04:08;;;;;;;7.95;5.13;;;;;;;;;;1497086;39;20027;-59
2021/08/03 04:05:11;;;;;;;8.63;5.43;;;;;;;;;;1497073;39;20295;-59
2021/08/03 04:06:14;;;;;;;8.63;5.07;;;;;;;;;;1497156;39;20023;-59
2021/08/03 04:07:15;;;;;;;9.25;5.28;;;;;;;;;;1496913;39;20042;-59
2021/08/03 04:08:17;;;;;;;11.57;5.63;;;;;;;;;;1497153;39;20056;-59
2021/08/03 04:09:18;;;;;;;9.00;5.68;;;;;;;;;;1497052;39;20031;-58
2021/08/03 04:10:33;;;;;;;8.48;5.72;;;;;;;;;;1496970;39;20395;-58
2021/08/03 04:11:43;;;;;;;9.88;5.40;;;;;;;;;;1496970;39;20410;-58
2021/08/03 04:12:45;;;;;;;10.50;5.40;;;;;;;;;;1497557;39;20044;-58
2021/08/03 04:13:49;;;;;;;10.23;5.20;;;;;;;;;;1497620;39;20023;-58
2021/08/03 04:14:51;;;;;;;8.95;5.05;;;;;;;;;;1497649;39;20295;-58
2021/08/03 04:15:52;;;;;;;9.27;5.07;;;;;;;;;;1497654;39;20023;-58
2021/08/03 04:16:56;;;;;;;9.98;5.68;;;;;;;;;;1497733;39;20322;-58
2021/08/03 04:17:56;;;;;;;9.02;6.05;;;;;;;;;;1497561;39;20382;-58
2021/08/03 04:18:58;;;;;;;12.13;5.90;;;;;;;;;;1497792;39;20031;-59
2021/08/03 04:20:00;;;;;;;11.45;5.32;;;;;;;;;;1497648;39;20030;-58
2021/08/03 04:21:02;;;;;;;9.45;5.22;;;;;;;;;;1497805;39;20031;-57
2021/08/03 04:22:03;;;;;;;7.88;5.20;;;;;;;;;;1497485;39;20028;-58
2021/08/03 04:23:05;;;;;;;9.73;5.53;;;;;;;;;;1497660;39;20030;-58
2021/08/03 04:24:06;;;;;;;9.57;5.35;;;;;;;;;;1497674;39;20030;-58
2021/08/03 04:25:09;;;;;;;8.48;5.10;;;;;;;;;;1497634;39;20031;-58
2021/08/03 04:26:10;;;;;;;9.85;5.63;;;;;;;;;;1497539;39;20046;-58
2021/08/03 04:27:12;;;;;;;8.90;5.13;;;;;;;;;;1497641;39;20124;-58
2021/08/03 04:28:13;;;;;;;12.13;5.60;;;;;;;;;;1497575;39;20023;-58
2021/08/03 04:29:16;;;;;;;11.45;5.28;;;;;;;;;;1497659;39;20287;-58
2021/08/03 04:30:17;;;;;;;8.60;5.28;;;;;;;;;;1497531;39;20031;-58
2021/08/03 04:31:19;;;;;;;9.85;5.60;;;;;;;;;;1497746;39;20028;-58
2021/08/03 04:32:20;;;;;;;12.65;5.25;;;;;;;;;;1497548;39;20023;-58
2021/08/03 04:33:22;;;;;;;8.68;5.00;;;;;;;;;;1497594;39;20024;-58
2021/08/03 04:34:22;;;;;;;9.93;5.47;;;;;;;;;;1497515;39;20026;-58
2021/08/03 04:35:26;;;;;;;8.65;5.20;;;;;;;;;;1497777;39;20026;-58
2021/08/03 04:36:27;;;;;;;8.82;5.28;;;;;;;;;;1497493;39;20074;-58
2021/08/03 04:37:29;;;;;;;8.20;5.07;;;;;;;;;;1497505;39;20024;-58
2021/08/03 04:38:29;;;;;;;9.75;5.10;;;;;;;;;;1497556;39;20031;-58
2021/08/03 04:39:31;;;;;;;8.85;5.03;;;;;;;;;;1497702;39;20039;-59
2021/08/03 04:40:32;;;;;;;7.57;4.82;;;;;;;;;;1497554;39;20019;-58
2021/08/03 04:41:34;;;;;;;9.05;4.90;;;;;;;;;;1497504;39;20050;-59
2021/08/03 04:42:35;;;;;;;10.57;5.22;;;;;;;;;;1497699;39;20034;-58
2021/08/03 04:43:38;;;;;;;7.82;4.75;;;;;;;;;;1497605;39;20314;-58
2021/08/03 04:44:39;;;;;;;8.02;4.93;;;;;;;;;;1497609;39;20093;-58
2021/08/03 04:45:40;;;;;;;9.95;5.00;;;;;;;;;;1497660;39;20282;-58
2021/08/03 04:46:41;;;;;;;12.13;4.85;;;;;;;;;;1497489;39;20417;-59
2021/08/03 04:47:44;;;;;;;10.50;5.65;;;;;;;;;;1497599;39;20023;-59
2021/08/03 04:48:45;;;;;;;10.27;4.68;;;;;;;;;;1497528;39;20379;-58
2021/08/03 04:49:47;;;;;;;9.55;5.13;;;;;;;;;;1497482;39;20015;-58
2021/08/03 04:50:49;;;;;;;8.93;5.30;;;;;;;;;;1497616;39;20022;-58
2021/08/03 04:51:51;;;;;;;6.13;4.65;;;;;;;;;;1497615;39;20034;-59
2021/08/03 04:52:53;;;;;;;6.90;4.68;;;;;;;;;;1497561;39;20375;-57
2021/08/03 04:53:55;;;;;;;9.88;5.22;;;;;;;;;;1497497;39;20085;-59
2021/08/03 04:54:55;;;;;;;7.65;4.80;;;;;;;;;;1497551;39;20034;-58
2021/08/03 04:55:57;;;;;;;9.32;4.55;;;;;;;;;;1497747;39;20044;-58
2021/08/03 04:56:58;;;;;;;8.57;4.55;;;;;;;;;;1497461;39;20410;-58
2021/08/03 04:58:00;;;;;;;7.38;5.20;;;;;;;;;;1497577;39;20030;-58
2021/08/03 04:59:01;;;;;;;8.18;4.95;;;;;;;;;;1497569;39;20023;-58
2021/08/03 05:00:04;;;;;;;8.73;5.63;;;;;;;;;;1497519;39;20063;-58
2021/08/03 05:01:05;;;;;;;8.00;4.93;;;;;;;;;;1497564;39;20024;-58
2021/08/03 05:02:07;;;;;;;7.82;5.10;;;;;;;;;;1497448;39;20032;-58
2021/08/03 05:03:09;;;;;;;9.05;5.22;;;;;;;;;;1497439;39;20054;-58
2021/08/03 05:04:11;;;;;;;8.70;5.10;;;;;;;;;;1497517;39;20023;-59
2021/08/03 05:05:12;;;;;;;8.25;5.18;;;;;;;;;;1497487;39;20026;-59
2021/08/03 05:06:15;;;;;;;9.48;4.75;;;;;;;;;;1497617;39;20023;-59
2021/08/03 05:07:16;;;;;;;11.00;6.03;;;;;;;;;;1497543;39;20027;-59
2021/08/03 05:08:18;;;;;;;10.52;5.63;;;;;;;;;;1497646;39;20027;-59
2021/08/03 05:09:18;;;;;;;7.88;5.07;;;;;;;;;;1497456;39;20398;-59
2021/08/03 05:10:20;;;;;;;11.88;5.63;;;;;;;;;;1497615;39;20039;-59
2021/08/03 05:11:21;;;;;;;7.50;4.80;;;;;;;;;;1497398;39;20034;-58
2021/08/03 05:12:23;;;;;;;12.70;6.03;;;;;;;;;;1497496;39;20027;-58
2021/08/03 05:13:24;;;;;;;9.70;5.18;;;;;;;;;;1497474;39;20026;-59
2021/08/03 05:14:26;;;;;;;8.23;5.15;;;;;;;;;;1497613;39;20027;-58
2021/08/03 05:15:27;;;;;;;9.57;5.70;;;;;;;;;;1497416;39;20417;-58
2021/08/03 05:16:29;;;;;;;12.25;5.70;;;;;;;;;;1497545;39;20039;-58
2021/08/03 05:17:32;;;;;;;10.07;5.30;;;;;;;;;;1497477;39;20030;-58
2021/08/03 05:18:33;;;;;;;7.38;4.88;;;;;;;;;;1497506;39;20027;-59
2021/08/03 05:19:34;;;;;;;10.48;6.20;;;;;;;;;;1497502;39;20270;-59
2021/08/03 05:20:36;;;;;;;10.63;5.90;;;;;;;;;;1497521;39;20025;-59
2021/08/03 05:21:38;;;;;;;7.63;5.60;;;;;;;;;;1497531;39;20027;-61
2021/08/03 05:22:40;;;;;;;8.07;5.15;;;;;;;;;;1497421;39;20030;-59
2021/08/03 05:23:41;;;;;;;9.18;5.60;;;;;;;;;;1497245;39;20031;-59
2021/08/03 05:24:43;;;;;;;7.68;5.10;;;;;;;;;;1497304;39;20024;-60
2021/08/03 05:25:44;;;;;;;7.85;5.30;;;;;;;;;;1497400;39;20050;-59
2021/08/03 05:26:46;;;;;;;8.05;4.85;;;;;;;;;;1497647;39;20027;-59
2021/08/03 05:27:46;;;;;;;8.55;5.15;;;;;;;;;;1497376;39;20023;-59
2021/08/03 05:28:48;;;;;;;7.55;5.18;;;;;;;;;;1497608;39;20020;-61
2021/08/03 05:29:49;;;;;;;7.68;5.10;;;;;;;;;;1497341;39;20394;-60
2021/08/03 05:30:51;;;;;;;7.80;5.03;;;;;;;;;;1497416;39;20023;-59
2021/08/03 05:31:52;;;;;;;8.48;5.32;;;;;;;;;;1497452;39;20031;-59
2021/08/03 05:32:53;;;;;;;9.82;5.90;;;;;;;;;;1497372;39;20043;-59
2021/08/03 05:33:54;;;;;;;8.43;5.38;;;;;;;;;;1497361;39;20027;-59
2021/08/03 05:34:56;;;;;;;9.60;4.95;;;;;;;;;;1497377;39;20027;-59
2021/08/03 05:35:57;;;;;;;11.02;5.20;;;;;;;;;;1497350;39;20019;-59
2021/08/03 05:37:02;;;;;;;9.75;5.80;;;;;;;;;;1497524;39;20023;-59
2021/08/03 05:38:05;;;;;;;7.65;5.28;;;;;;;;;;1497394;39;20437;-61
2021/08/03 05:39:09;;;;;;;7.57;4.97;;;;;;;;;;1497421;39;20024;-59
2021/08/03 05:40:12;;;;;;;9.57;5.00;;;;;;;;;;1497413;39;20029;-59
2021/08/03 05:41:14;;;;;;;9.45;5.90;;;;;;;;;;1497432;39;20034;-59
2021/08/03 05:42:15;;;;;;;10.52;6.63;;;;;;;;;;1497308;39;20038;-59
2021/08/03 05:43:17;;;;;;;10.45;5.57;;;;;;;;;;1497495;39;20031;-59
2021/08/03 05:44:18;;;;;;;9.65;6.10;;;;;;;;;;1497384;39;20100;-59
2021/08/03 05:45:23;;;;;;;9.43;5.65;;;;;;;;;;1497408;39;20024;-59
2021/08/03 05:46:24;;;;;;;8.75;5.90;;;;;;;;;;1497384;39;20291;-59
2021/08/03 05:47:25;;;;;;;8.85;6.05;;;;;;;;;;1497441;39;20024;-59
2021/08/03 05:48:26;;;;;;;10.88;6.05;;;;;;;;;;1496911;39;20038;-59
2021/08/03 05:49:29;;;;;;;12.95;6.28;;;;;;;;;;1496957;39;20414;-59
2021/08/03 05:50:29;;;;;;;8.82;5.85;;;;;;;;;;1497404;39;20030;-59
2021/08/03 05:51:31;;;;;;;9.77;6.55;;;;;;;;;;1497495;39;20042;-59
2021/08/03 05:52:33;;;;;;;13.43;7.10;;;;;;;;;;1497440;39;20027;-59
2021/08/03 05:53:35;;;;;;;9.45;6.30;;;;;;;;;;1497500;39;20028;-59
2021/08/03 05:54:36;;;;;;;9.95;6.38;;;;;;;;;;1497323;39;20024;-58
2021/08/03 05:55:38;;;;;;;11.95;6.75;;;;;;;;;;1497425;39;20051;-59
2021/08/03 05:56:39;;;;;;;8.65;6.00;;;;;;;;;;1497390;39;20023;-60
2021/08/03 05:57:41;;;;;;;10.32;6.15;;;;;;;;;;1497444;39;20035;-60
2021/08/03 05:58:42;;;;;;;11.50;6.50;;;;;;;;;;1497321;39;20023;-59
2021/08/03 05:59:44;;;;;;;9.43;6.03;;;;;;;;;;1497346;39;20026;-59
2021/08/03 06:00:45;;;;;;;8.18;5.88;;;;;;;;;;1497363;39;20020;-61
2021/08/03 06:01:47;;;;;;;10.32;6.20;;;;;;;;;;1497247;39;20020;-59
2021/08/03 06:02:48;;;;;;;9.75;6.05;;;;;;;;;;1497286;39;20028;-59
2021/08/03 06:03:49;;;;;;;9.88;6.47;;;;;;;;;;1497398;39;20023;-59
2021/08/03 06:04:50;;;;;;;12.38;6.20;;;;;;;;;;1497394;39;20030;-58
2021/08/03 06:05:52;;;;;;;11.00;6.47;;;;;;;;;;1497456;39;20027;-59
2021/08/03 06:06:55;;;;;;;11.75;5.30;;;;;;;;;;1497277;39;20034;-59
2021/08/03 06:08:00;;;;;;;10.52;6.07;;;;;;;;;;1497509;39;20063;-59
2021/08/03 06:09:01;;;;;;;14.43;7.07;;;;;;;;;;1497660;39;20028;-59
2021/08/03 06:10:04;;;;;;;7.88;5.10;;;;;;;;;;1497216;39;20031;-59
2021/08/03 06:11:05;;;;;;;8.90;5.60;;;;;;;;;;1497317;39;20414;-60
2021/08/03 06:12:09;;;;;;;11.25;6.07;;;;;;;;;;1497260;39;20028;-59
2021/08/03 06:13:12;;;;;;;10.45;5.85;;;;;;;;;;1497256;39;20295;-59
2021/08/03 06:14:19;;;;;;;11.95;6.63;;;;;;;;;;1497372;39;20034;-59
2021/08/03 06:15:21;;;;;;;14.10;6.32;;;;;;;;;;1497286;39;20020;-59
2021/08/03 06:16:25;;;;;;;12.55;6.03;;;;;;;;;;1497467;39;20092;-60
2021/08/03 06:17:34;;;;;;;12.60;6.53;;;;;;;;;;1497256;39;20264;-59
2021/08/03 06:18:38;;;;;;;12.10;6.50;;;;;;;;;;1497454;39;20287;-59
2021/08/03 06:19:42;;;;;;;10.45;6.10;;;;;;;;;;1497407;39;20019;-58